createdAt,value
2019-02-21T00:00:41.344Z,78.56
2019-02-21T00:01:41.353Z,78.36
2019-02-21T00:02:41.321Z,78.46
2019-02-21T00:03:41.307Z,79.19
2019-02-21T00:04:41.295Z,78.67
2019-02-21T00:05:41.285Z,78.15
2019-02-21T00:06:41.295Z,78.88
2019-02-21T00:07:41.269Z,78.67
2019-02-21T00:08:41.253Z,78.15
2019-02-21T00:09:41.246Z,78.32
2019-02-21T00:10:41.231Z,78.01
2019-02-21T00:11:41.243Z,78.63
2019-02-21T00:12:41.211Z,78.77
2019-02-21T00:13:41.200Z,78.01
2019-02-21T00:14:41.191Z,78.32
2019-02-21T00:15:41.175Z,77.91
2019-02-21T00:16:41.197Z,78.01
2019-02-21T00:17:41.154Z,78.32
2019-02-21T00:18:41.146Z,78.11
2019-02-21T00:19:41.133Z,77.91
2019-02-21T00:20:41.123Z,78.22
2019-02-21T00:21:41.110Z,78.74
2019-02-21T00:22:42.822Z,78.01
2019-02-21T00:23:41.088Z,78.01
2019-02-21T00:24:41.079Z,78.42
2019-02-21T00:25:41.132Z,77.84
2019-02-21T00:26:41.060Z,78.01
2019-02-21T00:27:41.068Z,77.43
2019-02-21T00:28:41.035Z,78.05
2019-02-21T00:29:41.054Z,77.81
2019-02-21T00:30:41.027Z,78.32
2019-02-21T00:31:41.002Z,78.15
2019-02-21T00:32:42.823Z,78.22
2019-02-21T00:33:40.978Z,78.01
2019-02-21T00:34:40.969Z,77.91
2019-02-21T00:35:40.959Z,78.36
2019-02-21T00:36:40.960Z,78.25
2019-02-21T00:37:40.956Z,78.63
2019-02-21T00:38:40.930Z,78.05
2019-02-21T00:39:40.917Z,78.15
2019-02-21T00:40:40.903Z,78.36
2019-02-21T00:41:40.891Z,78.22
2019-02-21T00:42:40.902Z,78.22
2019-02-21T00:43:40.871Z,79.08
2019-02-21T00:44:40.859Z,79.05
2019-02-21T00:45:40.849Z,78.25
2019-02-21T00:46:40.836Z,79.08
2019-02-21T00:47:40.845Z,78.98
2019-02-21T00:48:40.815Z,78.67
2019-02-21T00:49:40.804Z,79.49
2019-02-21T00:50:40.793Z,79.29
2019-02-21T00:51:40.785Z,79.80
2019-02-21T00:52:40.793Z,79.91
2019-02-21T00:53:40.761Z,80.43
2019-02-21T00:54:40.750Z,80.26
2019-02-21T00:55:40.740Z,80.88
2019-02-21T00:56:40.727Z,80.67
2019-02-21T00:57:40.741Z,80.57
2019-02-21T00:58:40.706Z,81.23
2019-02-21T00:59:40.698Z,81.02
2019-02-21T01:00:46.496Z,80.71
2019-02-21T01:01:41.673Z,81.02
2019-02-21T01:02:40.662Z,80.85
2019-02-21T01:03:40.673Z,81.02
2019-02-21T01:04:40.639Z,81.12
2019-02-21T01:05:40.628Z,81.54
2019-02-21T01:06:40.636Z,81.26
2019-02-21T01:07:40.607Z,81.88
2019-02-21T01:08:40.618Z,81.57
2019-02-21T01:09:40.586Z,81.78
2019-02-21T01:10:40.585Z,81.37
2019-02-21T01:11:40.569Z,81.26
2019-02-21T01:12:40.554Z,81.26
2019-02-21T01:13:40.564Z,81.37
2019-02-21T01:14:40.532Z,81.88
2019-02-21T01:15:40.525Z,81.20
2019-02-21T01:16:40.516Z,81.09
2019-02-21T01:17:40.571Z,81.68
2019-02-21T01:18:40.514Z,81.92
2019-02-21T01:19:40.480Z,81.71
2019-02-21T01:20:40.469Z,81.40
2019-02-21T01:21:40.474Z,82.13
2019-02-21T01:22:40.443Z,81.51
2019-02-21T01:23:40.463Z,81.20
2019-02-21T01:24:40.465Z,81.61
2019-02-21T01:25:40.427Z,81.40
2019-02-21T01:26:40.400Z,81.20
2019-02-21T01:27:40.414Z,81.20
2019-02-21T01:28:40.393Z,81.34
2019-02-21T01:29:41.364Z,80.82
2019-02-21T01:30:40.394Z,81.02
2019-02-21T01:31:40.396Z,81.34
2019-02-21T01:32:40.350Z,80.92
2019-02-21T01:33:40.361Z,80.92
2019-02-21T01:34:40.399Z,81.65
2019-02-21T01:35:40.302Z,81.75
2019-02-21T01:36:40.296Z,81.65
2019-02-21T01:37:40.293Z,82.06
2019-02-21T01:38:40.352Z,82.20
2019-02-21T01:39:40.261Z,81.89
2019-02-21T01:40:40.282Z,81.68
2019-02-21T01:41:40.237Z,81.68
2019-02-21T01:42:40.243Z,81.79
2019-02-21T01:43:40.245Z,82.51
2019-02-21T01:44:40.302Z,83.34
2019-02-21T01:45:40.199Z,83.24
2019-02-21T01:46:40.223Z,83.65
2019-02-21T01:47:40.171Z,83.34
2019-02-21T01:48:40.246Z,82.72
2019-02-21T01:49:40.234Z,82.51
2019-02-21T01:50:40.195Z,82.65
2019-02-21T01:51:40.216Z,82.10
2019-02-21T01:52:40.118Z,82.72
2019-02-21T01:53:40.141Z,82.65
2019-02-21T01:54:40.147Z,82.55
2019-02-21T01:55:40.162Z,83.14
2019-02-21T01:56:40.131Z,82.82
2019-02-21T01:57:40.192Z,83.55
2019-02-21T01:58:40.119Z,84.28
2019-02-21T01:59:40.088Z,84.48
2019-02-21T02:00:40.136Z,84.07
2019-02-21T02:01:40.076Z,85.00
2019-02-21T02:02:40.084Z,84.59
2019-02-21T02:03:40.075Z,84.38
2019-02-21T02:04:40.011Z,84.90
2019-02-21T02:05:40.249Z,84.69
2019-02-21T02:06:40.063Z,84.90
2019-02-21T02:07:40.095Z,85.17
2019-02-21T02:08:39.993Z,84.96
2019-02-21T02:09:39.968Z,85.58
2019-02-21T02:10:42.019Z,85.17
2019-02-21T02:11:40.017Z,85.27
2019-02-21T02:12:40.131Z,85.44
2019-02-21T02:13:40.049Z,85.27
2019-02-21T02:14:39.954Z,85.06
2019-02-21T02:15:39.953Z,85.03
2019-02-21T02:16:40.029Z,84.51
2019-02-21T02:17:39.939Z,84.41
2019-02-21T02:18:39.916Z,84.82
2019-02-21T02:19:39.928Z,84.30
2019-02-21T02:20:39.893Z,84.92
2019-02-21T02:21:39.850Z,84.30
2019-02-21T02:22:39.874Z,84.20
2019-02-21T02:23:39.869Z,83.37
2019-02-21T02:24:39.840Z,84.27
2019-02-21T02:25:39.965Z,84.27
2019-02-21T02:26:39.931Z,83.75
2019-02-21T02:27:39.905Z,83.85
2019-02-21T02:28:39.898Z,83.95
2019-02-21T02:29:39.794Z,83.75
2019-02-21T02:30:39.878Z,82.67
2019-02-21T02:31:39.795Z,83.02
2019-02-21T02:32:39.741Z,83.29
2019-02-21T02:33:39.773Z,82.26
2019-02-21T02:34:39.726Z,82.67
2019-02-21T02:35:39.864Z,82.78
2019-02-21T02:36:39.760Z,83.71
2019-02-21T02:37:39.714Z,83.19
2019-02-21T02:38:39.619Z,83.81
2019-02-21T02:39:39.611Z,82.67
2019-02-21T02:40:39.599Z,82.57
2019-02-21T02:41:39.601Z,82.57
2019-02-21T02:42:39.584Z,82.46
2019-02-21T02:43:39.573Z,82.46
2019-02-21T02:44:39.550Z,82.53
2019-02-21T02:45:39.542Z,83.19
2019-02-21T02:46:39.561Z,82.32
2019-02-21T02:47:39.521Z,81.70
2019-02-21T02:48:39.519Z,81.91
2019-02-21T02:49:39.503Z,82.43
2019-02-21T02:50:39.489Z,82.12
2019-02-21T02:51:39.504Z,82.01
2019-02-21T02:52:39.467Z,81.91
2019-02-21T02:53:39.457Z,81.91
2019-02-21T02:54:39.446Z,82.01
2019-02-21T02:55:39.432Z,81.39
2019-02-21T02:56:39.461Z,81.70
2019-02-21T02:57:39.408Z,81.29
2019-02-21T02:58:39.420Z,81.49
2019-02-21T02:59:41.169Z,81.87
2019-02-21T03:00:39.374Z,82.70
2019-02-21T03:01:39.362Z,82.29
2019-02-21T03:02:39.380Z,81.98
2019-02-21T03:03:39.345Z,82.08
2019-02-21T03:04:39.345Z,82.08
2019-02-21T03:05:39.319Z,82.39
2019-02-21T03:06:39.309Z,81.67
2019-02-21T03:07:39.325Z,81.67
2019-02-21T03:08:39.286Z,81.87
2019-02-21T03:09:39.276Z,82.18
2019-02-21T03:10:39.265Z,81.87
2019-02-21T03:11:39.259Z,83.11
2019-02-21T03:12:39.266Z,82.39
2019-02-21T03:13:39.232Z,81.87
2019-02-21T03:14:39.222Z,81.77
2019-02-21T03:15:39.230Z,81.67
2019-02-21T03:16:39.201Z,82.60
2019-02-21T03:17:39.235Z,83.32
2019-02-21T03:18:39.183Z,82.39
2019-02-21T03:19:39.175Z,82.70
2019-02-21T03:20:39.164Z,83.53
2019-02-21T03:21:39.170Z,83.63
2019-02-21T03:22:39.163Z,83.94
2019-02-21T03:23:39.128Z,84.25
2019-02-21T03:24:39.117Z,84.15
2019-02-21T03:25:39.102Z,83.67
2019-02-21T03:26:39.093Z,83.05
2019-02-21T03:27:39.108Z,83.53
2019-02-21T03:28:39.068Z,83.87
2019-02-21T03:29:39.057Z,83.67
2019-02-21T03:30:39.049Z,83.05
2019-02-21T03:31:53.433Z,83.25
2019-02-21T03:32:40.053Z,83.56
2019-02-21T03:33:39.038Z,83.67
2019-02-21T03:34:39.011Z,83.87
2019-02-21T03:35:39.049Z,84.29
2019-02-21T03:36:38.984Z,83.98
2019-02-21T03:37:39.013Z,82.95
2019-02-21T03:38:38.993Z,84.29
2019-02-21T03:39:38.952Z,84.29
2019-02-21T03:40:39.026Z,83.87
2019-02-21T03:41:38.926Z,83.56
2019-02-21T03:42:38.915Z,83.67
2019-02-21T03:43:38.927Z,84.08
2019-02-21T03:44:38.895Z,84.19
2019-02-21T03:45:38.890Z,83.87
2019-02-21T03:46:38.870Z,84.39
2019-02-21T03:47:38.867Z,84.08
2019-02-21T03:48:38.888Z,84.81
2019-02-21T03:49:38.843Z,84.91
2019-02-21T03:50:38.825Z,84.50
2019-02-21T03:51:38.819Z,84.39
2019-02-21T03:52:38.813Z,83.87
2019-02-21T03:53:38.817Z,83.87
2019-02-21T03:54:38.786Z,84.29
2019-02-21T03:55:38.773Z,84.91
2019-02-21T03:56:38.770Z,84.70
2019-02-21T03:57:38.753Z,84.29
2019-02-21T03:58:38.770Z,84.81
2019-02-21T03:59:38.737Z,84.66
2019-02-21T04:00:38.732Z,84.81
2019-02-21T04:01:38.713Z,84.50
2019-02-21T04:02:38.718Z,83.98
2019-02-21T04:03:38.741Z,84.29
2019-02-21T04:04:38.689Z,84.29
2019-02-21T04:05:38.672Z,84.39
2019-02-21T04:06:38.661Z,84.70
2019-02-21T04:07:38.651Z,84.91
2019-02-21T04:08:38.645Z,84.50
2019-02-21T04:09:38.656Z,85.11
2019-02-21T04:10:38.614Z,85.02
2019-02-21T04:11:38.612Z,85.11
2019-02-21T04:12:38.606Z,84.70
2019-02-21T04:13:38.590Z,85.63
2019-02-21T05:37:07.847Z,85.68
2019-02-21T05:38:01.798Z,85.92
2019-02-21T05:39:01.779Z,85.82
2019-02-21T05:40:03.211Z,85.82
2019-02-21T05:41:04.274Z,85.92
2019-02-21T05:42:01.768Z,85.82
2019-02-21T05:43:01.729Z,85.19
2019-02-21T05:44:01.725Z,85.61
2019-02-21T05:45:01.710Z,85.92
2019-02-21T05:46:01.699Z,85.71
2019-02-21T05:47:01.809Z,86.13
2019-02-21T05:48:01.686Z,85.82
2019-02-21T05:49:01.690Z,85.86
2019-02-21T05:50:01.659Z,85.71
2019-02-21T05:51:01.656Z,86.17
2019-02-21T05:52:01.659Z,86.07
2019-02-21T05:53:01.652Z,85.92
2019-02-21T05:54:01.621Z,85.44
2019-02-21T05:55:01.609Z,86.07
2019-02-21T05:56:01.598Z,85.55
2019-02-21T05:57:01.606Z,85.86
2019-02-21T05:58:01.570Z,85.96
2019-02-21T05:59:01.561Z,85.86
2019-02-21T06:00:01.573Z,86.07
2019-02-21T06:01:01.542Z,86.17
2019-02-21T06:02:01.561Z,86.07
2019-02-21T06:03:01.516Z,86.07
2019-02-21T06:04:01.503Z,86.17
2019-02-21T06:51:30.553Z,86.83
2019-02-21T06:51:56.202Z,86.83
2019-02-21T06:52:56.192Z,86.72
2019-02-21T06:53:56.202Z,86.52
2019-02-21T06:54:56.171Z,86.21
2019-02-21T06:55:56.158Z,86.17
2019-02-21T06:56:56.144Z,86.37
2019-02-21T06:57:56.134Z,86.47
2019-02-21T06:58:56.144Z,86.79
2019-02-21T06:59:56.112Z,86.68
2019-02-21T07:00:56.100Z,86.07
2019-02-21T07:01:56.089Z,85.86
2019-02-21T07:02:56.089Z,85.65
2019-02-21T07:03:56.092Z,85.44
2019-02-21T07:04:56.777Z,85.71
2019-02-21T07:06:34.603Z,85.61
2019-02-21T07:06:56.913Z,85.82
2019-02-21T07:08:59.898Z,86.02
2019-02-21T07:09:00.369Z,85.50
2019-02-21T07:10:00.426Z,86.02
2019-02-21T07:11:06.305Z,85.82
2019-02-21T07:12:02.114Z,85.82
2019-02-21T07:13:00.323Z,86.02
2019-02-21T07:14:00.342Z,85.92
2019-02-21T07:15:00.438Z,85.92
2019-02-21T07:16:00.305Z,85.82
2019-02-21T07:17:00.279Z,85.71
2019-02-21T07:18:00.274Z,86.02
2019-02-21T07:19:00.297Z,86.02
2019-02-21T07:20:00.286Z,85.92
2019-02-21T07:21:00.236Z,85.40
2019-02-21T07:22:00.226Z,85.71
2019-02-21T07:23:00.223Z,86.44
2019-02-21T07:24:00.231Z,86.13
2019-02-21T07:25:00.466Z,86.02
2019-02-21T07:26:00.188Z,86.44
2019-02-21T07:27:00.172Z,86.23
2019-02-21T07:28:10.928Z,85.99
2019-02-21T07:29:01.191Z,85.78
2019-02-21T07:30:00.416Z,85.30
2019-02-21T07:31:00.135Z,85.78
2019-02-21T07:32:00.116Z,85.88
2019-02-21T07:33:00.108Z,85.78
2019-02-21T07:34:01.659Z,86.19
2019-02-21T07:35:00.261Z,86.50
2019-02-21T07:36:00.083Z,86.81
2019-02-21T07:37:00.062Z,86.81
2019-02-21T07:38:00.049Z,86.71
2019-02-21T07:39:17.159Z,86.77
2019-02-21T07:41:36.528Z,86.81
2019-02-21T08:12:24.107Z,84.79
2019-02-21T08:21:01.444Z,84.59
2019-02-21T08:21:33.415Z,84.13
2019-02-21T08:22:33.382Z,83.93
2019-02-21T08:23:33.374Z,83.93
2019-02-21T08:24:33.383Z,84.44
2019-02-21T08:25:33.344Z,83.58
2019-02-21T08:26:33.369Z,83.89
2019-02-21T08:27:35.181Z,83.17
2019-02-21T08:28:33.313Z,82.86
2019-02-21T08:29:33.300Z,82.51
2019-02-21T08:30:33.311Z,82.71
2019-02-21T08:31:33.284Z,82.82
2019-02-21T08:32:33.271Z,81.99
2019-02-21T08:33:33.257Z,82.20
2019-02-21T08:34:33.248Z,82.06
2019-02-21T08:35:33.239Z,81.65
2019-02-21T08:36:33.245Z,81.75
2019-02-21T08:37:33.238Z,81.44
2019-02-21T08:38:33.201Z,81.96
2019-02-21T08:39:33.189Z,81.75
2019-02-21T08:40:33.180Z,81.85
2019-02-21T08:41:33.192Z,81.65
2019-02-21T08:42:33.161Z,81.34
2019-02-21T08:43:33.146Z,81.68
2019-02-21T08:44:33.135Z,81.54
2019-02-21T08:45:33.121Z,80.93
2019-02-21T08:46:33.133Z,80.93
2019-02-21T08:47:33.099Z,81.34
2019-02-21T08:48:33.089Z,81.34
2019-02-21T08:49:33.077Z,81.34
2019-02-21T08:50:33.069Z,81.03
2019-02-21T08:51:33.078Z,81.34
2019-02-21T08:52:33.045Z,80.93
2019-02-21T08:53:33.034Z,80.82
2019-02-21T08:54:33.025Z,81.30
2019-02-21T08:55:33.015Z,80.79
2019-02-21T08:56:33.045Z,80.82
2019-02-21T08:57:32.993Z,80.06
2019-02-21T08:58:32.981Z,80.37
2019-02-21T08:59:32.968Z,79.82
2019-02-21T09:00:32.957Z,79.72
2019-02-21T09:01:32.947Z,79.41
2019-02-21T09:02:32.962Z,79.37
2019-02-21T09:03:32.935Z,78.34
2019-02-21T09:18:56.879Z,76.04
2019-02-21T09:19:30.596Z,75.32
2019-02-21T09:20:29.822Z,75.73
2019-02-21T09:21:29.807Z,74.60
2019-02-21T09:22:29.807Z,74.50
2019-02-21T09:23:29.770Z,75.73
2019-02-21T09:24:38.494Z,75.63
2019-02-21T09:25:30.749Z,74.98
2019-02-21T09:26:29.741Z,74.08
2019-02-21T09:27:29.755Z,75.12
2019-02-21T09:28:29.720Z,74.08
2019-02-21T09:29:29.710Z,74.46
2019-02-21T09:30:29.699Z,74.26
2019-02-21T09:31:29.688Z,74.22
2019-02-21T09:32:30.091Z,74.12
2019-02-21T09:33:29.671Z,73.91
2019-02-21T10:25:25.233Z,70.57
2019-02-21T10:25:58.204Z,70.47
2019-02-21T10:26:58.186Z,70.09
2019-02-21T10:27:59.196Z,70.20
2019-02-21T10:28:58.159Z,69.96
2019-02-21T10:29:58.174Z,69.65
2019-02-21T10:30:58.141Z,69.11
2019-02-21T10:31:58.129Z,67.68
2019-02-21T10:32:58.115Z,68.80
2019-02-21T10:33:58.105Z,67.57
2019-02-21T10:34:58.114Z,68.08
2019-02-21T10:36:00.443Z,67.85
2019-02-21T10:36:58.083Z,67.24
2019-02-21T10:37:58.062Z,68.36
2019-02-21T10:38:58.063Z,67.03
2019-02-21T10:40:54.200Z,66.59
2019-02-21T10:40:58.029Z,67.30
2019-02-21T10:41:58.027Z,67.51
2019-02-21T10:42:58.018Z,68.33
2019-02-21T10:43:57.998Z,67.21
2019-02-21T10:44:58.004Z,68.12
2019-02-21T10:45:57.972Z,67.10
2019-02-21T10:46:57.961Z,67.30
2019-02-21T10:47:57.948Z,67.30
2019-02-21T10:48:57.939Z,67.21
2019-02-21T10:49:57.950Z,68.05
2019-02-21T10:50:57.913Z,67.54
2019-02-21T10:51:57.902Z,67.85
2019-02-21T10:52:57.893Z,67.10
2019-02-21T10:53:57.884Z,67.34
2019-02-21T10:54:57.868Z,67.92
2019-02-21T10:55:59.424Z,67.41
2019-02-21T10:56:57.850Z,67.21
2019-02-21T10:57:57.839Z,67.82
2019-02-21T10:58:57.828Z,67.92
2019-02-21T10:59:57.815Z,67.58
2019-02-21T11:00:57.836Z,67.27
2019-02-21T11:01:57.799Z,66.36
2019-02-21T11:02:57.785Z,66.42
2019-02-21T11:03:57.780Z,64.90
2019-02-21T11:04:57.762Z,64.69
2019-02-21T11:10:38.110Z,64.53
2019-02-21T11:11:11.055Z,63.68
2019-02-21T11:13:38.340Z,63.20
2019-02-21T11:14:05.668Z,64.81
2019-02-21T11:14:47.219Z,65.01
2019-02-21T11:15:42.056Z,64.40
2019-02-21T11:16:38.631Z,64.29
2019-02-21T11:17:38.645Z,64.09
2019-02-21T11:18:38.614Z,63.99
2019-02-21T11:19:38.604Z,64.40
2019-02-21T11:20:38.586Z,64.09
2019-02-21T11:21:38.581Z,64.53
2019-02-21T11:22:38.591Z,64.94
2019-02-21T11:23:38.561Z,64.60
2019-02-21T11:24:38.548Z,65.45
2019-02-21T11:25:38.541Z,64.63
2019-02-21T11:26:38.518Z,66.27
2019-02-21T11:27:39.107Z,66.47
2019-02-21T11:28:38.501Z,66.54
2019-02-21T11:29:38.497Z,66.85
2019-02-21T11:30:38.476Z,65.92
2019-02-21T11:31:38.464Z,66.33
2019-02-21T11:32:38.476Z,66.10
2019-02-21T11:33:38.467Z,66.41
2019-02-21T11:34:38.455Z,66.30
2019-02-21T11:41:21.816Z,66.03
2019-02-21T11:42:21.787Z,66.33
2019-02-21T11:43:21.791Z,66.54
2019-02-21T11:44:21.760Z,66.54
2019-02-21T11:45:21.747Z,66.41
2019-02-21T11:46:21.733Z,66.20
2019-02-21T11:47:21.725Z,66.61
2019-02-21T11:48:21.738Z,66.50
2019-02-21T11:49:21.701Z,66.30
2019-02-21T11:50:21.689Z,66.30
2019-02-21T11:51:21.678Z,65.89
2019-02-21T11:52:21.665Z,65.97
2019-02-21T11:53:21.661Z,66.17
2019-02-21T11:54:26.902Z,66.07
2019-02-21T11:55:22.639Z,65.83
2019-02-21T11:56:21.630Z,65.25
2019-02-21T11:57:21.611Z,65.02
2019-02-21T11:58:21.600Z,65.33
2019-02-21T11:59:21.611Z,64.92
2019-02-21T12:00:21.667Z,64.89
2019-02-21T12:01:21.568Z,64.48
2019-02-21T12:02:21.562Z,64.38
2019-02-21T12:03:21.552Z,64.35
2019-02-21T12:04:21.560Z,63.94
2019-02-21T12:05:30.425Z,63.13
2019-02-21T12:06:22.509Z,63.33
2019-02-21T12:07:21.509Z,62.72
2019-02-21T12:08:21.491Z,61.88
2019-02-21T12:37:52.861Z,59.18
2019-02-21T12:38:25.828Z,59.82
2019-02-21T12:39:25.810Z,59.11
2019-02-21T12:40:25.807Z,59.01
2019-02-21T12:50:17.693Z,57.12
2019-02-21T12:51:17.647Z,57.03
2019-02-21T12:52:17.652Z,57.64
2019-02-21T12:53:17.609Z,57.53
2019-02-21T12:54:17.585Z,56.72
2019-02-21T12:55:27.217Z,56.11
2019-02-21T12:56:18.564Z,56.34
2019-02-21T12:57:17.555Z,56.41
2019-02-21T12:58:18.261Z,56.95
2019-02-21T12:59:17.530Z,56.44
2019-02-21T13:00:17.537Z,56.13
2019-02-21T13:01:17.513Z,57.15
2019-02-21T13:02:17.498Z,56.85
2019-02-21T13:03:17.542Z,56.65
2019-02-21T13:04:17.474Z,57.28
2019-02-21T13:05:17.543Z,56.67
2019-02-21T13:06:17.453Z,57.35
2019-02-21T13:07:17.441Z,57.76
2019-02-21T13:08:17.450Z,57.28
2019-02-21T13:09:17.417Z,56.65
2019-02-21T13:10:17.416Z,56.85
2019-02-21T13:11:17.400Z,56.95
2019-02-21T13:12:17.393Z,57.25
2019-02-21T13:13:17.402Z,57.25
2019-02-21T13:14:17.366Z,57.05
2019-02-21T13:16:44.467Z,57.35
2019-02-21T13:17:12.324Z,56.65
2019-02-21T13:19:11.885Z,57.89
2019-02-21T13:19:39.313Z,58.17
2019-02-21T13:20:12.199Z,58.06
2019-02-21T13:21:12.207Z,58.78
2019-02-21T13:22:12.195Z,58.20
2019-02-21T13:23:12.193Z,58.80
2019-02-21T13:24:12.179Z,58.78
2019-02-21T13:25:12.222Z,58.50
2019-02-21T13:26:12.161Z,58.78
2019-02-21T13:27:12.120Z,58.47
2019-02-21T13:28:12.177Z,58.34
2019-02-21T13:29:12.127Z,58.85
2019-02-21T13:30:12.094Z,58.54
2019-02-21T13:31:12.078Z,58.34
2019-02-21T13:32:12.068Z,57.60
2019-02-21T13:33:12.054Z,58.31
2019-02-21T13:34:12.064Z,58.22
2019-02-21T13:35:12.034Z,58.09
2019-02-21T13:36:12.024Z,56.90
2019-02-21T13:37:12.012Z,58.11
2019-02-21T13:38:12.063Z,58.01
2019-02-21T13:39:12.024Z,58.01
2019-02-21T13:40:11.979Z,56.39
2019-02-21T13:41:11.972Z,58.04
2019-02-21T14:17:03.982Z,64.76
2019-02-21T14:17:31.311Z,64.83
2019-02-21T14:18:04.305Z,64.86
2019-02-21T14:20:31.365Z,65.06
2019-02-21T14:31:35.373Z,65.09
2019-02-21T14:32:35.359Z,65.09
2019-02-21T14:33:35.320Z,65.30
2019-02-21T14:34:35.309Z,65.09
2019-02-21T14:35:35.296Z,64.58
2019-02-21T14:36:35.285Z,65.39
2019-02-21T14:37:35.303Z,64.79
2019-02-21T14:38:37.712Z,64.89
2019-02-21T14:39:35.255Z,65.09
2019-02-21T14:40:35.246Z,65.22
2019-02-21T14:41:35.285Z,65.12
2019-02-21T14:42:35.237Z,65.33
2019-02-21T14:43:44.835Z,65.53
2019-02-21T14:44:35.209Z,66.04
2019-02-21T14:45:35.194Z,67.16
2019-02-21T14:46:35.186Z,67.36
2019-02-21T14:47:35.185Z,67.29
2019-02-21T14:48:35.178Z,69.23
2019-02-21T14:49:35.143Z,69.70
2019-02-21T14:50:36.096Z,70.24
2019-02-21T14:51:35.119Z,70.75
2019-02-21T14:52:35.108Z,71.97
2019-02-21T14:53:35.121Z,72.01
2019-02-21T14:54:35.099Z,73.33
2019-02-21T14:55:35.079Z,73.54
2019-02-21T14:56:35.071Z,74.18
2019-02-21T14:57:40.913Z,73.47
2019-02-21T14:58:36.061Z,76.01
2019-02-21T14:59:35.048Z,75.51
2019-02-21T15:00:35.022Z,75.51
2019-02-21T15:01:35.018Z,76.15
2019-02-21T15:02:35.002Z,76.35
2019-02-21T15:03:35.020Z,75.81
2019-02-21T15:04:34.979Z,76.32
2019-02-21T15:05:34.976Z,76.25
2019-02-21T15:06:34.963Z,75.92
2019-02-21T15:07:34.950Z,76.53
2019-02-21T15:08:34.963Z,75.71
2019-02-21T15:09:34.926Z,76.05
2019-02-21T15:10:34.915Z,76.83
2019-02-21T15:11:34.906Z,76.97
2019-02-21T15:12:35.685Z,75.85
2019-02-21T15:13:34.881Z,77.24
2019-02-21T15:14:34.895Z,77.34
2019-02-21T15:15:34.859Z,78.05
2019-02-21T15:16:34.860Z,77.89
2019-02-21T15:17:34.838Z,77.95
2019-02-21T15:18:34.827Z,78.77
2019-02-21T15:19:34.843Z,78.19
2019-02-21T15:20:37.065Z,78.30
2019-02-21T15:21:34.792Z,77.89
2019-02-21T15:22:34.789Z,77.75
2019-02-21T15:23:37.011Z,77.95
2019-02-21T15:24:34.831Z,77.95
2019-02-21T15:25:34.762Z,77.03
2019-02-21T15:26:34.736Z,76.93
2019-02-21T15:27:34.773Z,76.73
2019-02-21T15:28:34.731Z,77.24
2019-02-21T15:29:34.731Z,76.93
2019-02-21T15:30:34.695Z,77.03
2019-02-21T15:31:34.689Z,77.37
2019-02-21T15:32:34.679Z,77.03
2019-02-21T15:33:34.676Z,77.24
2019-02-21T15:34:34.684Z,77.34
2019-02-21T17:17:52.219Z,80.37
2019-02-21T17:18:25.199Z,80.41
2019-02-21T17:19:25.187Z,80.82
2019-02-21T17:20:25.180Z,80.61
2019-02-21T17:21:25.166Z,80.41
2019-02-21T17:22:25.159Z,80.71
2019-02-21T17:23:25.155Z,80.82
2019-02-21T17:24:25.144Z,80.82
2019-02-21T17:25:25.108Z,81.32
2019-02-21T17:26:25.138Z,81.32
2019-02-21T17:27:25.084Z,81.12
2019-02-21T17:28:25.072Z,81.84
2019-02-21T17:29:26.852Z,81.43
2019-02-21T17:30:25.057Z,82.45
2019-02-21T17:31:25.046Z,81.23
2019-02-21T17:32:25.072Z,81.43
2019-02-21T17:33:25.014Z,81.94
2019-02-21T17:34:25.034Z,82.65
2019-02-21T17:35:25.055Z,81.73
2019-02-21T17:36:25.047Z,81.32
2019-02-21T17:37:25.486Z,81.12
2019-02-21T17:38:25.039Z,81.53
2019-02-21T17:39:24.952Z,81.12
2019-02-21T17:40:24.962Z,81.12
2019-02-21T17:41:24.937Z,81.05
2019-02-21T17:42:24.949Z,81.02
2019-02-21T17:43:25.029Z,80.91
2019-02-21T17:44:24.940Z,80.96
2019-02-21T17:45:25.046Z,80.96
2019-02-21T17:46:24.884Z,80.55
2019-02-21T17:47:24.988Z,80.55
2019-02-21T18:02:05.518Z,80.85
2019-02-21T18:02:38.504Z,80.85
2019-02-21T18:03:38.451Z,80.89
2019-02-21T18:04:38.437Z,80.38
2019-02-21T18:05:38.533Z,80.48
2019-02-21T18:26:26.903Z,80.18
2019-02-21T18:27:26.939Z,79.57
2019-02-21T18:28:26.832Z,79.36
2019-02-21T18:29:26.891Z,79.25
2019-02-21T18:30:26.803Z,79.43
2019-02-21T18:31:26.837Z,79.66
2019-02-21T18:32:26.787Z,79.25
2019-02-21T18:33:26.766Z,79.16
2019-02-21T18:34:26.762Z,78.54
2019-02-21T18:35:26.752Z,78.64
2019-02-21T18:36:26.767Z,78.95
2019-02-21T18:37:26.750Z,78.44
2019-02-21T18:38:26.715Z,78.34
2019-02-21T18:39:26.704Z,78.23
2019-02-21T18:40:26.692Z,78.85
2019-02-21T18:41:26.701Z,78.64
2019-02-21T18:42:26.673Z,78.34
2019-02-21T18:43:26.662Z,78.64
2019-02-21T18:44:26.666Z,77.72
2019-02-21T18:45:26.641Z,77.62
2019-02-21T18:46:26.770Z,78.23
2019-02-21T18:47:26.617Z,78.13
2019-02-21T18:48:26.637Z,77.72
2019-02-21T18:49:26.597Z,78.23
2019-02-21T18:50:37.346Z,77.22
2019-02-21T18:51:27.590Z,77.15
2019-02-21T18:52:26.577Z,77.22
2019-02-21T18:53:26.585Z,77.42
2019-02-21T18:54:26.538Z,77.04
2019-02-21T18:55:26.534Z,76.53
2019-02-21T18:56:26.543Z,76.74
2019-02-21T18:57:26.508Z,75.99
2019-02-21T18:58:26.496Z,77.11
2019-02-21T18:59:31.691Z,76.74
2019-02-21T19:00:27.467Z,76.74
2019-02-21T19:01:26.485Z,77.35
2019-02-21T19:02:26.452Z,76.53
2019-02-21T19:03:26.437Z,77.45
2019-02-21T19:04:26.428Z,77.56
2019-02-21T19:09:49.309Z,77.35
2019-02-21T19:10:22.288Z,77.25
2019-02-21T19:13:38.269Z,77.35
2019-02-21T19:51:48.646Z,78.11
2019-02-21T19:52:47.459Z,77.70
2019-02-21T19:53:47.572Z,77.49
2019-02-21T19:54:47.434Z,77.59
2019-02-21T19:55:47.457Z,78.11
2019-02-21T19:56:47.416Z,77.70
2019-02-21T19:57:47.407Z,77.70
2019-02-21T19:58:47.394Z,77.39
2019-02-21T19:59:47.400Z,77.70
2019-02-21T20:00:47.428Z,78.11
2019-02-21T20:01:47.404Z,77.59
2019-02-21T20:02:47.418Z,77.90
2019-02-21T20:03:47.358Z,77.90
2019-02-21T20:04:47.392Z,78.20
2019-02-21T20:05:47.383Z,78.72
2019-02-21T20:06:47.387Z,78.52
2019-02-21T20:07:47.306Z,78.82
2019-02-21T20:08:47.319Z,79.02
2019-02-21T20:09:47.375Z,79.23
2019-02-21T20:10:47.298Z,79.33
2019-02-21T20:11:47.388Z,79.13
2019-02-21T20:12:47.269Z,79.02
2019-02-21T20:13:47.244Z,78.61
2019-02-21T20:14:47.272Z,78.61
2019-02-21T20:15:47.238Z,78.61
2019-02-21T20:16:47.285Z,79.33
2019-02-21T20:17:47.250Z,79.33
2019-02-21T20:18:47.243Z,79.53
2019-02-21T20:19:48.096Z,78.82
2019-02-21T20:20:47.156Z,79.23
2019-02-21T20:21:47.151Z,79.02
2019-02-21T20:22:47.161Z,79.33
2019-02-21T20:23:47.131Z,79.33
2019-02-21T20:24:47.182Z,79.57
2019-02-21T20:25:47.168Z,79.02
2019-02-21T20:26:47.157Z,79.33
2019-02-21T20:27:47.076Z,79.43
2019-02-21T20:28:47.149Z,79.02
2019-02-21T20:29:47.168Z,79.53
2019-02-21T20:30:47.092Z,79.02
2019-02-21T20:31:47.139Z,79.13
2019-02-21T20:32:47.029Z,79.23
2019-02-21T20:33:47.086Z,79.23
2019-02-21T21:35:31.147Z,80.80
2019-02-21T21:36:04.160Z,80.90
2019-02-21T21:37:04.313Z,80.80
2019-02-21T21:38:04.143Z,80.80
2019-02-21T21:39:04.073Z,80.39
2019-02-21T21:40:04.071Z,80.69
2019-02-21T21:41:04.049Z,80.69
2019-02-21T21:42:04.071Z,80.39
2019-02-21T21:43:04.026Z,80.80
2019-02-21T21:44:04.043Z,80.60
2019-02-21T21:45:04.020Z,80.90
2019-02-21T21:46:04.045Z,80.69
2019-02-21T21:47:04.022Z,80.80
2019-02-21T21:48:03.978Z,80.90
2019-02-21T21:49:03.969Z,80.53
2019-02-21T21:50:03.964Z,81.01
2019-02-21T21:51:03.952Z,81.01
2019-02-21T21:52:03.961Z,81.21
2019-02-21T21:53:03.921Z,81.24
2019-02-21T21:54:03.957Z,81.41
2019-02-21T21:55:03.917Z,81.51
2019-02-21T21:56:03.913Z,81.41
2019-02-21T21:57:03.878Z,81.21
2019-02-21T21:58:03.904Z,81.62
2019-02-21T21:59:03.905Z,81.31
2019-02-21T22:00:03.849Z,81.72
2019-02-21T22:01:03.841Z,81.51
2019-02-21T22:02:03.862Z,82.43
2019-02-21T22:03:03.835Z,81.72
2019-02-21T22:04:03.802Z,82.23
2019-02-21T22:05:03.793Z,82.13
2019-02-21T22:08:19.693Z,81.62
2019-02-21T22:09:19.657Z,82.17
2019-02-21T22:10:19.639Z,81.82
2019-02-21T22:11:19.623Z,81.93
2019-02-21T22:12:19.622Z,81.93
2019-02-21T22:13:19.641Z,81.82
2019-02-21T22:14:19.595Z,82.23
2019-02-21T22:15:19.595Z,81.72
2019-02-21T22:16:19.577Z,82.34
2019-02-21T22:17:19.567Z,83.05
2019-02-21T22:18:19.610Z,82.34